sensor_id;sensor_type;location;lat;lon;timestamp;temperature;humidity
57058;DHT22;55017;52.848;6.748;2023-05-10T00:01:55;14.30;99.90
57058;DHT22;55017;52.848;6.748;2023-05-10T00:04:21;14.30;99.90
57058;DHT22;55017;52.848;6.748;2023-05-10T00:06:47;14.20;99.90
57058;DHT22;55017;52.848;6.748;2023-05-10T00:09:13;14.10;99.90
57058;DHT22;55017;52.848;6.748;2023-05-10T00:11:38;14.00;99.90
57058;DHT22;55017;52.848;6.748;2023-05-10T00:14:04;14.10;99.90
57058;DHT22;55017;52.848;6.748;2023-05-10T00:16:30;14.10;99.90
57058;DHT22;55017;52.848;6.748;2023-05-10T00:18:55;14.10;99.90
57058;DHT22;55017;52.848;6.748;2023-05-10T00:21:21;14.00;99.90
57058;DHT22;55017;52.848;6.748;2023-05-10T00:23:47;14.10;99.90
57058;DHT22;55017;52.848;6.748;2023-05-10T00:26:12;14.10;99.90
57058;DHT22;55017;52.848;6.748;2023-05-10T00:28:38;13.90;99.90
57058;DHT22;55017;52.848;6.748;2023-05-10T00:31:03;14.00;99.90
57058;DHT22;55017;52.848;6.748;2023-05-10T00:33:29;14.00;99.90
57058;DHT22;55017;52.848;6.748;2023-05-10T00:35:54;14.00;99.90
57058;DHT22;55017;52.848;6.748;2023-05-10T00:38:20;13.90;99.90
57058;DHT22;55017;52.848;6.748;2023-05-10T00:40:46;14.00;99.90
57058;DHT22;55017;52.848;6.748;2023-05-10T00:43:11;13.90;99.90
57058;DHT22;55017;52.848;6.748;2023-05-10T00:45:37;13.80;99.90
57058;DHT22;55017;52.848;6.748;2023-05-10T00:48:05;13.80;99.90
57058;DHT22;55017;52.848;6.748;2023-05-10T00:50:31;13.80;99.90
57058;DHT22;55017;52.848;6.748;2023-05-10T00:52:59;13.80;99.90
57058;DHT22;55017;52.848;6.748;2023-05-10T00:55:25;13.80;99.90
57058;DHT22;55017;52.848;6.748;2023-05-10T00:57:52;13.70;99.90
57058;DHT22;55017;52.848;6.748;2023-05-10T01:00:18;13.80;99.90
57058;DHT22;55017;52.848;6.748;2023-05-10T01:02:45;13.70;99.90
57058;DHT22;55017;52.848;6.748;2023-05-10T01:05:11;13.70;99.90
57058;DHT22;55017;52.848;6.748;2023-05-10T01:07:37;13.70;99.90
57058;DHT22;55017;52.848;6.748;2023-05-10T01:10:03;13.80;99.90
57058;DHT22;55017;52.848;6.748;2023-05-10T01:12:28;13.70;99.90
57058;DHT22;55017;52.848;6.748;2023-05-10T01:14:54;13.70;99.90
57058;DHT22;55017;52.848;6.748;2023-05-10T01:17:21;13.70;99.90
57058;DHT22;55017;52.848;6.748;2023-05-10T01:19:47;13.80;99.90
57058;DHT22;55017;52.848;6.748;2023-05-10T01:22:49;13.70;99.90
57058;DHT22;55017;52.848;6.748;2023-05-10T01:34:08;13.60;99.90
57058;DHT22;55017;52.848;6.748;2023-05-10T01:36:56;13.60;99.90
57058;DHT22;55017;52.848;6.748;2023-05-10T01:39:28;13.50;99.90
57058;DHT22;55017;52.848;6.748;2023-05-10T01:42:09;13.50;99.90
57058;DHT22;55017;52.848;6.748;2023-05-10T01:44:57;13.50;99.90
57058;DHT22;55017;52.848;6.748;2023-05-10T01:47:35;13.60;99.90
57058;DHT22;55017;52.848;6.748;2023-05-10T01:50:04;13.50;99.90
57058;DHT22;55017;52.848;6.748;2023-05-10T01:52:40;13.50;99.90
57058;DHT22;55017;52.848;6.748;2023-05-10T01:55:10;13.40;99.90
57058;DHT22;55017;52.848;6.748;2023-05-10T01:57:37;13.50;99.90
57058;DHT22;55017;52.848;6.748;2023-05-10T02:00:08;13.50;99.90
57058;DHT22;55017;52.848;6.748;2023-05-10T02:02:37;13.50;99.90
57058;DHT22;55017;52.848;6.748;2023-05-10T02:05:05;13.50;99.90
57058;DHT22;55017;52.848;6.748;2023-05-10T02:07:34;13.40;99.90
57058;DHT22;55017;52.848;6.748;2023-05-10T02:10:05;13.40;99.90
57058;DHT22;55017;52.848;6.748;2023-05-10T02:12:33;13.40;99.90
57058;DHT22;55017;52.848;6.748;2023-05-10T02:15:02;13.40;99.90
57058;DHT22;55017;52.848;6.748;2023-05-10T02:17:31;13.40;99.90
57058;DHT22;55017;52.848;6.748;2023-05-10T02:19:59;13.40;99.90
57058;DHT22;55017;52.848;6.748;2023-05-10T02:22:26;13.40;99.90
57058;DHT22;55017;52.848;6.748;2023-05-10T02:24:54;13.30;99.90
57058;DHT22;55017;52.848;6.748;2023-05-10T02:27:21;13.40;99.90
57058;DHT22;55017;52.848;6.748;2023-05-10T02:29:47;13.30;99.90
57058;DHT22;55017;52.848;6.748;2023-05-10T02:32:13;13.30;99.90
57058;DHT22;55017;52.848;6.748;2023-05-10T02:34:40;13.30;99.90
57058;DHT22;55017;52.848;6.748;2023-05-10T02:37:06;13.30;99.90
57058;DHT22;55017;52.848;6.748;2023-05-10T02:39:33;13.30;99.90
57058;DHT22;55017;52.848;6.748;2023-05-10T02:42:00;13.40;99.90
57058;DHT22;55017;52.848;6.748;2023-05-10T02:44:26;13.40;99.90
57058;DHT22;55017;52.848;6.748;2023-05-10T02:46:53;13.30;99.90
57058;DHT22;55017;52.848;6.748;2023-05-10T02:49:21;13.30;99.90
57058;DHT22;55017;52.848;6.748;2023-05-10T02:52:00;13.30;99.90
57058;DHT22;55017;52.848;6.748;2023-05-10T02:54:29;13.30;99.90
57058;DHT22;55017;52.848;6.748;2023-05-10T02:56:58;13.30;99.90
57058;DHT22;55017;52.848;6.748;2023-05-10T02:59:26;13.20;99.90
57058;DHT22;55017;52.848;6.748;2023-05-10T03:01:51;13.30;99.90
57058;DHT22;55017;52.848;6.748;2023-05-10T03:04:17;13.30;99.90
57058;DHT22;55017;52.848;6.748;2023-05-10T03:06:43;13.20;99.90
57058;DHT22;55017;52.848;6.748;2023-05-10T03:09:10;13.40;99.90
57058;DHT22;55017;52.848;6.748;2023-05-10T03:12:11;13.40;99.90
57058;DHT22;55017;52.848;6.748;2023-05-10T03:17:46;13.30;99.90
57058;DHT22;55017;52.848;6.748;2023-05-10T03:20:20;13.30;99.90
57058;DHT22;55017;52.848;6.748;2023-05-10T03:22:51;13.30;99.90
57058;DHT22;55017;52.848;6.748;2023-05-10T03:25:19;13.40;99.90
57058;DHT22;55017;52.848;6.748;2023-05-10T03:27:45;13.30;99.90
57058;DHT22;55017;52.848;6.748;2023-05-10T03:30:12;13.20;99.90
57058;DHT22;55017;52.848;6.748;2023-05-10T03:32:38;13.30;99.90
57058;DHT22;55017;52.848;6.748;2023-05-10T03:35:11;13.30;99.90
57058;DHT22;55017;52.848;6.748;2023-05-10T03:37:38;13.30;99.90
57058;DHT22;55017;52.848;6.748;2023-05-10T03:40:04;13.30;99.90
57058;DHT22;55017;52.848;6.748;2023-05-10T03:42:30;13.20;99.90
57058;DHT22;55017;52.848;6.748;2023-05-10T03:44:56;13.30;99.90
57058;DHT22;55017;52.848;6.748;2023-05-10T03:47:22;13.20;99.90
57058;DHT22;55017;52.848;6.748;2023-05-10T03:49:47;13.30;99.90
57058;DHT22;55017;52.848;6.748;2023-05-10T03:52:13;13.30;99.90
57058;DHT22;55017;52.848;6.748;2023-05-10T03:54:38;13.30;99.90
57058;DHT22;55017;52.848;6.748;2023-05-10T03:57:04;13.20;99.90
57058;DHT22;55017;52.848;6.748;2023-05-10T03:59:29;13.30;99.90
57058;DHT22;55017;52.848;6.748;2023-05-10T04:01:55;13.20;99.90
57058;DHT22;55017;52.848;6.748;2023-05-10T04:04:21;13.10;99.90
57058;DHT22;55017;52.848;6.748;2023-05-10T04:06:47;13.10;99.90
57058;DHT22;55017;52.848;6.748;2023-05-10T04:09:13;13.10;99.90
57058;DHT22;55017;52.848;6.748;2023-05-10T04:11:39;13.10;99.90
57058;DHT22;55017;52.848;6.748;2023-05-10T04:14:04;13.10;99.90
57058;DHT22;55017;52.848;6.748;2023-05-10T04:16:30;13.10;99.90
57058;DHT22;55017;52.848;6.748;2023-05-10T04:18:55;13.10;99.90
57058;DHT22;55017;52.848;6.748;2023-05-10T04:21:21;13.20;99.90
57058;DHT22;55017;52.848;6.748;2023-05-10T04:23:47;13.10;99.90
57058;DHT22;55017;52.848;6.748;2023-05-10T04:26:13;13.10;99.90
57058;DHT22;55017;52.848;6.748;2023-05-10T04:28:38;13.00;99.90
57058;DHT22;55017;52.848;6.748;2023-05-10T04:31:09;13.10;99.90
57058;DHT22;55017;52.848;6.748;2023-05-10T04:33:35;13.00;99.90
57058;DHT22;55017;52.848;6.748;2023-05-10T04:36:01;13.00;99.90
57058;DHT22;55017;52.848;6.748;2023-05-10T04:38:27;13.10;99.90
57058;DHT22;55017;52.848;6.748;2023-05-10T04:40:53;13.10;99.90
57058;DHT22;55017;52.848;6.748;2023-05-10T04:43:19;13.00;99.90
57058;DHT22;55017;52.848;6.748;2023-05-10T04:45:45;13.10;99.90
57058;DHT22;55017;52.848;6.748;2023-05-10T04:48:11;13.00;99.90
57058;DHT22;55017;52.848;6.748;2023-05-10T04:50:36;13.10;99.90
57058;DHT22;55017;52.848;6.748;2023-05-10T04:53:02;13.10;99.90
57058;DHT22;55017;52.848;6.748;2023-05-10T04:55:27;12.90;99.90
57058;DHT22;55017;52.848;6.748;2023-05-10T04:57:53;13.10;99.90
57058;DHT22;55017;52.848;6.748;2023-05-10T05:00:22;13.20;99.90
57058;DHT22;55017;52.848;6.748;2023-05-10T05:02:47;13.00;99.90
57058;DHT22;55017;52.848;6.748;2023-05-10T05:05:13;13.10;99.90
57058;DHT22;55017;52.848;6.748;2023-05-10T05:07:39;13.00;99.90
57058;DHT22;55017;52.848;6.748;2023-05-10T05:10:05;12.90;99.90
57058;DHT22;55017;52.848;6.748;2023-05-10T05:12:31;13.00;99.90
57058;DHT22;55017;52.848;6.748;2023-05-10T05:14:57;13.00;99.90
57058;DHT22;55017;52.848;6.748;2023-05-10T05:17:22;13.00;99.90
57058;DHT22;55017;52.848;6.748;2023-05-10T05:19:48;13.10;99.90
57058;DHT22;55017;52.848;6.748;2023-05-10T05:22:13;13.20;99.90
57058;DHT22;55017;52.848;6.748;2023-05-10T05:24:39;13.10;99.90
57058;DHT22;55017;52.848;6.748;2023-05-10T05:27:05;13.10;99.90
57058;DHT22;55017;52.848;6.748;2023-05-10T05:29:31;13.20;99.90
57058;DHT22;55017;52.848;6.748;2023-05-10T05:31:56;13.20;99.90
57058;DHT22;55017;52.848;6.748;2023-05-10T05:34:22;13.10;99.90
57058;DHT22;55017;52.848;6.748;2023-05-10T05:36:48;13.20;99.90
57058;DHT22;55017;52.848;6.748;2023-05-10T05:39:13;13.20;99.90
57058;DHT22;55017;52.848;6.748;2023-05-10T05:41:39;13.20;99.90
57058;DHT22;55017;52.848;6.748;2023-05-10T05:44:04;13.20;99.90
57058;DHT22;55017;52.848;6.748;2023-05-10T05:46:30;13.30;99.90
57058;DHT22;55017;52.848;6.748;2023-05-10T05:48:56;13.20;99.90
57058;DHT22;55017;52.848;6.748;2023-05-10T05:51:22;13.20;99.90
57058;DHT22;55017;52.848;6.748;2023-05-10T05:53:47;13.30;99.90
57058;DHT22;55017;52.848;6.748;2023-05-10T05:56:13;13.20;99.90
57058;DHT22;55017;52.848;6.748;2023-05-10T05:58:38;13.20;99.90
57058;DHT22;55017;52.848;6.748;2023-05-10T06:01:04;13.30;99.90
57058;DHT22;55017;52.848;6.748;2023-05-10T06:03:30;13.30;99.90
57058;DHT22;55017;52.848;6.748;2023-05-10T06:05:55;13.10;99.90
57058;DHT22;55017;52.848;6.748;2023-05-10T06:08:21;13.20;99.90
57058;DHT22;55017;52.848;6.748;2023-05-10T06:10:46;13.10;99.90
57058;DHT22;55017;52.848;6.748;2023-05-10T06:13:12;13.10;99.90
57058;DHT22;55017;52.848;6.748;2023-05-10T06:15:38;13.10;99.90
57058;DHT22;55017;52.848;6.748;2023-05-10T06:18:03;13.10;99.90
57058;DHT22;55017;52.848;6.748;2023-05-10T06:20:29;13.10;99.90
57058;DHT22;55017;52.848;6.748;2023-05-10T06:22:57;13.20;99.90
57058;DHT22;55017;52.848;6.748;2023-05-10T06:25:23;13.20;99.90
57058;DHT22;55017;52.848;6.748;2023-05-10T06:27:48;13.10;99.90
57058;DHT22;55017;52.848;6.748;2023-05-10T06:30:14;13.10;99.90
57058;DHT22;55017;52.848;6.748;2023-05-10T06:32:40;13.10;99.90
57058;DHT22;55017;52.848;6.748;2023-05-10T06:35:06;13.10;99.90
57058;DHT22;55017;52.848;6.748;2023-05-10T06:37:31;13.10;99.90
57058;DHT22;55017;52.848;6.748;2023-05-10T06:39:57;13.10;99.90
57058;DHT22;55017;52.848;6.748;2023-05-10T06:42:23;13.10;99.90
57058;DHT22;55017;52.848;6.748;2023-05-10T06:44:50;13.10;99.90
57058;DHT22;55017;52.848;6.748;2023-05-10T06:47:16;13.10;99.90
57058;DHT22;55017;52.848;6.748;2023-05-10T06:49:42;13.10;99.90
57058;DHT22;55017;52.848;6.748;2023-05-10T06:52:08;13.10;99.90
57058;DHT22;55017;52.848;6.748;2023-05-10T06:54:33;13.10;99.90
57058;DHT22;55017;52.848;6.748;2023-05-10T06:56:59;13.10;99.90
57058;DHT22;55017;52.848;6.748;2023-05-10T06:59:24;13.10;99.90
57058;DHT22;55017;52.848;6.748;2023-05-10T07:01:50;13.10;99.90
57058;DHT22;55017;52.848;6.748;2023-05-10T07:04:16;13.20;99.90
57058;DHT22;55017;52.848;6.748;2023-05-10T07:06:42;13.20;99.90
57058;DHT22;55017;52.848;6.748;2023-05-10T07:09:08;13.40;99.90
57058;DHT22;55017;52.848;6.748;2023-05-10T07:11:34;13.30;99.90
57058;DHT22;55017;52.848;6.748;2023-05-10T07:14:00;13.20;99.90
57058;DHT22;55017;52.848;6.748;2023-05-10T07:16:25;13.30;99.90
57058;DHT22;55017;52.848;6.748;2023-05-10T07:18:51;13.30;99.90
57058;DHT22;55017;52.848;6.748;2023-05-10T07:21:18;13.30;99.90
57058;DHT22;55017;52.848;6.748;2023-05-10T07:23:43;13.20;99.90
57058;DHT22;55017;52.848;6.748;2023-05-10T07:26:09;13.30;99.90
57058;DHT22;55017;52.848;6.748;2023-05-10T07:28:35;13.30;99.90
57058;DHT22;55017;52.848;6.748;2023-05-10T07:31:02;13.40;99.90
57058;DHT22;55017;52.848;6.748;2023-05-10T07:33:28;13.40;99.90
57058;DHT22;55017;52.848;6.748;2023-05-10T07:35:54;13.30;99.90
57058;DHT22;55017;52.848;6.748;2023-05-10T07:38:21;13.40;99.90
57058;DHT22;55017;52.848;6.748;2023-05-10T07:40:47;13.40;99.90
57058;DHT22;55017;52.848;6.748;2023-05-10T07:43:12;13.30;99.90
57058;DHT22;55017;52.848;6.748;2023-05-10T07:45:38;13.40;99.90
57058;DHT22;55017;52.848;6.748;2023-05-10T07:48:03;13.50;99.90
57058;DHT22;55017;52.848;6.748;2023-05-10T07:50:29;13.40;99.90
57058;DHT22;55017;52.848;6.748;2023-05-10T07:52:55;13.50;99.90
57058;DHT22;55017;52.848;6.748;2023-05-10T07:55:20;13.40;99.90
57058;DHT22;55017;52.848;6.748;2023-05-10T07:57:46;13.50;99.90
57058;DHT22;55017;52.848;6.748;2023-05-10T08:00:13;13.70;99.90
57058;DHT22;55017;52.848;6.748;2023-05-10T08:02:39;13.70;99.90
57058;DHT22;55017;52.848;6.748;2023-05-10T08:05:05;13.60;99.90
57058;DHT22;55017;52.848;6.748;2023-05-10T08:07:30;13.80;99.90
57058;DHT22;55017;52.848;6.748;2023-05-10T08:09:56;13.80;99.90
57058;DHT22;55017;52.848;6.748;2023-05-10T08:12:22;13.80;99.90
57058;DHT22;55017;52.848;6.748;2023-05-10T08:14:47;13.80;99.90
57058;DHT22;55017;52.848;6.748;2023-05-10T08:17:13;13.80;99.90
57058;DHT22;55017;52.848;6.748;2023-05-10T08:19:38;13.80;99.90
57058;DHT22;55017;52.848;6.748;2023-05-10T08:22:04;13.90;99.90
57058;DHT22;55017;52.848;6.748;2023-05-10T08:24:29;13.80;99.90
57058;DHT22;55017;52.848;6.748;2023-05-10T08:26:55;13.90;99.90
57058;DHT22;55017;52.848;6.748;2023-05-10T08:29:21;14.00;99.90
57058;DHT22;55017;52.848;6.748;2023-05-10T08:31:46;14.00;99.90
57058;DHT22;55017;52.848;6.748;2023-05-10T08:34:12;14.10;99.90
57058;DHT22;55017;52.848;6.748;2023-05-10T08:36:37;14.30;99.90
57058;DHT22;55017;52.848;6.748;2023-05-10T08:39:03;14.20;99.90
57058;DHT22;55017;52.848;6.748;2023-05-10T08:41:29;14.30;99.90
57058;DHT22;55017;52.848;6.748;2023-05-10T08:43:56;14.40;99.90
57058;DHT22;55017;52.848;6.748;2023-05-10T08:46:23;14.40;99.90
57058;DHT22;55017;52.848;6.748;2023-05-10T08:48:50;14.50;99.90
57058;DHT22;55017;52.848;6.748;2023-05-10T08:51:22;14.80;99.90
57058;DHT22;55017;52.848;6.748;2023-05-10T08:53:50;14.80;99.90
57058;DHT22;55017;52.848;6.748;2023-05-10T08:56:16;14.90;99.90
57058;DHT22;55017;52.848;6.748;2023-05-10T08:58:43;15.00;99.90
57058;DHT22;55017;52.848;6.748;2023-05-10T09:01:09;15.30;99.90
57058;DHT22;55017;52.848;6.748;2023-05-10T09:03:38;15.20;99.90
57058;DHT22;55017;52.848;6.748;2023-05-10T09:06:04;15.40;99.90
57058;DHT22;55017;52.848;6.748;2023-05-10T09:08:30;15.30;99.90
57058;DHT22;55017;52.848;6.748;2023-05-10T09:10:56;15.30;99.90
57058;DHT22;55017;52.848;6.748;2023-05-10T09:13:23;15.30;99.90
57058;DHT22;55017;52.848;6.748;2023-05-10T09:15:49;15.20;99.90
57058;DHT22;55017;52.848;6.748;2023-05-10T09:18:14;15.20;99.90
57058;DHT22;55017;52.848;6.748;2023-05-10T09:20:40;15.20;99.90
57058;DHT22;55017;52.848;6.748;2023-05-10T09:23:06;15.20;99.90
57058;DHT22;55017;52.848;6.748;2023-05-10T09:25:33;15.10;99.90
57058;DHT22;55017;52.848;6.748;2023-05-10T09:27:59;15.10;99.90
57058;DHT22;55017;52.848;6.748;2023-05-10T09:30:30;15.10;99.90
57058;DHT22;55017;52.848;6.748;2023-05-10T09:32:57;15.30;99.90
57058;DHT22;55017;52.848;6.748;2023-05-10T09:35:28;15.40;99.90
57058;DHT22;55017;52.848;6.748;2023-05-10T09:37:57;15.30;99.90
57058;DHT22;55017;52.848;6.748;2023-05-10T09:40:24;15.40;99.90
57058;DHT22;55017;52.848;6.748;2023-05-10T09:43:14;15.20;99.90
57058;DHT22;55017;52.848;6.748;2023-05-10T09:45:39;15.10;99.90
57058;DHT22;55017;52.848;6.748;2023-05-10T09:48:06;15.00;99.90
57058;DHT22;55017;52.848;6.748;2023-05-10T09:50:31;14.90;99.90
57058;DHT22;55017;52.848;6.748;2023-05-10T09:52:59;14.80;99.90
57058;DHT22;55017;52.848;6.748;2023-05-10T09:55:39;15.00;99.90
57058;DHT22;55017;52.848;6.748;2023-05-10T09:58:05;14.80;99.90
57058;DHT22;55017;52.848;6.748;2023-05-10T10:00:45;14.80;99.90
57058;DHT22;55017;52.848;6.748;2023-05-10T10:03:20;14.90;99.90
57058;DHT22;55017;52.848;6.748;2023-05-10T10:05:48;15.10;99.90
57058;DHT22;55017;52.848;6.748;2023-05-10T10:08:14;15.10;99.90
57058;DHT22;55017;52.848;6.748;2023-05-10T10:10:41;15.50;99.90
57058;DHT22;55017;52.848;6.748;2023-05-10T10:13:07;15.30;99.90
57058;DHT22;55017;52.848;6.748;2023-05-10T10:15:34;15.50;99.90
57058;DHT22;55017;52.848;6.748;2023-05-10T10:18:00;15.30;99.90
57058;DHT22;55017;52.848;6.748;2023-05-10T10:20:26;15.40;99.90
57058;DHT22;55017;52.848;6.748;2023-05-10T10:22:52;15.40;99.90
57058;DHT22;55017;52.848;6.748;2023-05-10T10:25:19;15.30;99.90
57058;DHT22;55017;52.848;6.748;2023-05-10T10:35:49;15.70;99.90
57058;DHT22;55017;52.848;6.748;2023-05-10T10:38:16;15.70;99.90
57058;DHT22;55017;52.848;6.748;2023-05-10T10:40:42;15.70;99.90
57058;DHT22;55017;52.848;6.748;2023-05-10T10:43:24;15.70;99.90
57058;DHT22;55017;52.848;6.748;2023-05-10T10:48:41;15.60;99.90
57058;DHT22;55017;52.848;6.748;2023-05-10T10:51:13;15.60;99.90
57058;DHT22;55017;52.848;6.748;2023-05-10T10:53:40;15.60;99.90
57058;DHT22;55017;52.848;6.748;2023-05-10T10:56:11;15.60;99.90
57058;DHT22;55017;52.848;6.748;2023-05-10T10:58:39;15.60;99.90
57058;DHT22;55017;52.848;6.748;2023-05-10T11:01:17;15.70;99.90
57058;DHT22;55017;52.848;6.748;2023-05-10T11:06:31;15.70;99.90
57058;DHT22;55017;52.848;6.748;2023-05-10T11:08:58;15.70;99.90
57058;DHT22;55017;52.848;6.748;2023-05-10T11:11:23;15.60;99.90
57058;DHT22;55017;52.848;6.748;2023-05-10T11:13:49;15.80;99.90
57058;DHT22;55017;52.848;6.748;2023-05-10T11:16:19;15.70;99.90
57058;DHT22;55017;52.848;6.748;2023-05-10T11:19:02;15.70;99.90
57058;DHT22;55017;52.848;6.748;2023-05-10T11:21:32;15.80;99.90
57058;DHT22;55017;52.848;6.748;2023-05-10T11:23:59;15.80;99.90
57058;DHT22;55017;52.848;6.748;2023-05-10T11:26:30;15.80;99.90
57058;DHT22;55017;52.848;6.748;2023-05-10T11:28:55;15.90;99.90
57058;DHT22;55017;52.848;6.748;2023-05-10T11:31:22;15.90;99.90
57058;DHT22;55017;52.848;6.748;2023-05-10T11:33:51;16.00;99.90
57058;DHT22;55017;52.848;6.748;2023-05-10T11:36:19;16.00;99.90
57058;DHT22;55017;52.848;6.748;2023-05-10T11:38:45;16.20;99.90
57058;DHT22;55017;52.848;6.748;2023-05-10T11:41:12;16.00;99.90
57058;DHT22;55017;52.848;6.748;2023-05-10T11:43:39;16.00;99.90
57058;DHT22;55017;52.848;6.748;2023-05-10T11:46:10;16.10;99.90
57058;DHT22;55017;52.848;6.748;2023-05-10T11:48:39;16.00;99.90
57058;DHT22;55017;52.848;6.748;2023-05-10T11:51:06;16.00;99.90
57058;DHT22;55017;52.848;6.748;2023-05-10T11:53:32;16.10;99.90
57058;DHT22;55017;52.848;6.748;2023-05-10T11:56:06;16.00;99.90
57058;DHT22;55017;52.848;6.748;2023-05-10T11:58:32;16.10;99.90
57058;DHT22;55017;52.848;6.748;2023-05-10T12:01:02;16.10;99.90
57058;DHT22;55017;52.848;6.748;2023-05-10T12:03:28;16.10;99.90
57058;DHT22;55017;52.848;6.748;2023-05-10T12:05:55;16.30;99.90
57058;DHT22;55017;52.848;6.748;2023-05-10T12:08:23;16.20;99.90
57058;DHT22;55017;52.848;6.748;2023-05-10T12:10:49;16.20;99.90
57058;DHT22;55017;52.848;6.748;2023-05-10T12:13:15;16.30;99.90
57058;DHT22;55017;52.848;6.748;2023-05-10T12:15:41;16.30;99.90
57058;DHT22;55017;52.848;6.748;2023-05-10T12:18:12;16.40;99.90
57058;DHT22;55017;52.848;6.748;2023-05-10T12:20:38;16.80;99.90
57058;DHT22;55017;52.848;6.748;2023-05-10T12:23:04;16.50;99.90
57058;DHT22;55017;52.848;6.748;2023-05-10T12:25:37;16.40;99.90
57058;DHT22;55017;52.848;6.748;2023-05-10T12:28:08;16.40;99.90
57058;DHT22;55017;52.848;6.748;2023-05-10T12:30:35;16.40;99.90
57058;DHT22;55017;52.848;6.748;2023-05-10T12:35:31;16.30;99.90
57058;DHT22;55017;52.848;6.748;2023-05-10T12:37:57;16.40;99.90
57058;DHT22;55017;52.848;6.748;2023-05-10T12:40:23;16.50;99.90
57058;DHT22;55017;52.848;6.748;2023-05-10T12:42:49;16.60;99.90
57058;DHT22;55017;52.848;6.748;2023-05-10T12:45:14;16.40;99.90
57058;DHT22;55017;52.848;6.748;2023-05-10T12:47:40;16.50;99.90
57058;DHT22;55017;52.848;6.748;2023-05-10T12:50:06;16.60;99.90
57058;DHT22;55017;52.848;6.748;2023-05-10T12:52:32;16.50;99.90
57058;DHT22;55017;52.848;6.748;2023-05-10T12:54:58;16.30;99.90
57058;DHT22;55017;52.848;6.748;2023-05-10T12:57:24;16.30;99.90
57058;DHT22;55017;52.848;6.748;2023-05-10T12:59:50;16.30;99.90
57058;DHT22;55017;52.848;6.748;2023-05-10T13:02:16;16.30;99.90
57058;DHT22;55017;52.848;6.748;2023-05-10T13:04:46;16.30;99.90
57058;DHT22;55017;52.848;6.748;2023-05-10T13:07:12;16.10;99.90
57058;DHT22;55017;52.848;6.748;2023-05-10T13:09:39;16.30;99.90
57058;DHT22;55017;52.848;6.748;2023-05-10T13:12:05;16.20;99.90
57058;DHT22;55017;52.848;6.748;2023-05-10T13:14:31;16.10;99.90
57058;DHT22;55017;52.848;6.748;2023-05-10T13:16:56;16.10;99.90
57058;DHT22;55017;52.848;6.748;2023-05-10T13:19:22;16.20;99.90
57058;DHT22;55017;52.848;6.748;2023-05-10T13:21:47;16.10;99.90
57058;DHT22;55017;52.848;6.748;2023-05-10T13:24:13;16.10;99.90
57058;DHT22;55017;52.848;6.748;2023-05-10T13:26:39;16.10;99.90
57058;DHT22;55017;52.848;6.748;2023-05-10T13:29:06;16.10;99.90
57058;DHT22;55017;52.848;6.748;2023-05-10T13:31:31;16.10;99.90
57058;DHT22;55017;52.848;6.748;2023-05-10T13:33:57;16.00;99.90
57058;DHT22;55017;52.848;6.748;2023-05-10T13:36:22;16.20;99.90
57058;DHT22;55017;52.848;6.748;2023-05-10T13:38:48;16.10;99.90
57058;DHT22;55017;52.848;6.748;2023-05-10T13:41:14;16.10;99.90
57058;DHT22;55017;52.848;6.748;2023-05-10T13:43:39;16.00;99.90
57058;DHT22;55017;52.848;6.748;2023-05-10T13:46:05;16.10;99.90
57058;DHT22;55017;52.848;6.748;2023-05-10T13:48:31;16.00;99.90
57058;DHT22;55017;52.848;6.748;2023-05-10T13:50:56;16.00;99.90
57058;DHT22;55017;52.848;6.748;2023-05-10T13:53:22;16.10;99.90
57058;DHT22;55017;52.848;6.748;2023-05-10T13:55:48;16.00;99.90
57058;DHT22;55017;52.848;6.748;2023-05-10T13:58:13;16.10;99.90
57058;DHT22;55017;52.848;6.748;2023-05-10T14:00:39;16.20;99.90
57058;DHT22;55017;52.848;6.748;2023-05-10T14:03:05;16.20;99.90
57058;DHT22;55017;52.848;6.748;2023-05-10T14:05:32;16.20;99.90
57058;DHT22;55017;52.848;6.748;2023-05-10T14:07:57;16.20;99.90
57058;DHT22;55017;52.848;6.748;2023-05-10T14:10:23;16.20;99.90
57058;DHT22;55017;52.848;6.748;2023-05-10T14:12:49;16.20;99.90
57058;DHT22;55017;52.848;6.748;2023-05-10T14:15:15;16.30;99.90
57058;DHT22;55017;52.848;6.748;2023-05-10T14:17:41;16.30;99.90
57058;DHT22;55017;52.848;6.748;2023-05-10T14:20:07;16.30;99.90
57058;DHT22;55017;52.848;6.748;2023-05-10T14:22:34;16.20;99.90
57058;DHT22;55017;52.848;6.748;2023-05-10T14:25:00;17.00;99.90
57058;DHT22;55017;52.848;6.748;2023-05-10T14:27:25;16.60;99.90
57058;DHT22;55017;52.848;6.748;2023-05-10T14:29:51;16.50;99.90
57058;DHT22;55017;52.848;6.748;2023-05-10T14:32:17;16.30;99.90
57058;DHT22;55017;52.848;6.748;2023-05-10T14:34:42;16.30;99.90
57058;DHT22;55017;52.848;6.748;2023-05-10T14:37:10;16.40;99.90
57058;DHT22;55017;52.848;6.748;2023-05-10T14:39:36;16.50;99.90
57058;DHT22;55017;52.848;6.748;2023-05-10T14:42:02;16.40;99.90
57058;DHT22;55017;52.848;6.748;2023-05-10T14:44:28;16.50;99.90
57058;DHT22;55017;52.848;6.748;2023-05-10T14:46:53;16.60;99.90
57058;DHT22;55017;52.848;6.748;2023-05-10T14:49:19;16.50;99.90
57058;DHT22;55017;52.848;6.748;2023-05-10T14:51:47;16.50;99.90
57058;DHT22;55017;52.848;6.748;2023-05-10T14:54:13;16.50;99.90
57058;DHT22;55017;52.848;6.748;2023-05-10T14:56:39;16.50;99.90
57058;DHT22;55017;52.848;6.748;2023-05-10T14:59:06;16.60;99.90
57058;DHT22;55017;52.848;6.748;2023-05-10T15:01:32;16.50;99.90
57058;DHT22;55017;52.848;6.748;2023-05-10T15:03:58;16.60;99.90
57058;DHT22;55017;52.848;6.748;2023-05-10T15:06:30;16.70;99.90
57058;DHT22;55017;52.848;6.748;2023-05-10T15:08:57;16.70;99.90
57058;DHT22;55017;52.848;6.748;2023-05-10T15:11:22;16.70;99.90
57058;DHT22;55017;52.848;6.748;2023-05-10T15:13:48;16.70;99.90
57058;DHT22;55017;52.848;6.748;2023-05-10T15:16:13;16.70;99.90
57058;DHT22;55017;52.848;6.748;2023-05-10T15:18:39;16.70;99.90
57058;DHT22;55017;52.848;6.748;2023-05-10T15:21:04;16.60;99.90
57058;DHT22;55017;52.848;6.748;2023-05-10T15:23:30;16.70;99.90
57058;DHT22;55017;52.848;6.748;2023-05-10T15:25:55;16.60;99.90
57058;DHT22;55017;52.848;6.748;2023-05-10T15:28:21;16.60;99.90
57058;DHT22;55017;52.848;6.748;2023-05-10T15:30:47;16.70;99.90
57058;DHT22;55017;52.848;6.748;2023-05-10T15:33:13;16.70;99.90
57058;DHT22;55017;52.848;6.748;2023-05-10T15:35:39;16.60;99.90
57058;DHT22;55017;52.848;6.748;2023-05-10T15:38:05;16.60;99.90
57058;DHT22;55017;52.848;6.748;2023-05-10T15:40:31;16.60;99.90
57058;DHT22;55017;52.848;6.748;2023-05-10T15:42:56;16.60;99.90
57058;DHT22;55017;52.848;6.748;2023-05-10T15:45:22;16.70;99.90
57058;DHT22;55017;52.848;6.748;2023-05-10T15:47:48;16.60;99.90
57058;DHT22;55017;52.848;6.748;2023-05-10T15:50:14;16.60;99.90
57058;DHT22;55017;52.848;6.748;2023-05-10T15:52:40;16.50;99.90
57058;DHT22;55017;52.848;6.748;2023-05-10T15:55:07;16.50;99.90
57058;DHT22;55017;52.848;6.748;2023-05-10T15:57:40;16.40;99.90